sensor_id;sensor_type;location;lat;lon;timestamp;P1;durP1;ratioP1;P2;durP2;ratioP2
76155;SDS011;64906;51.290;7.348;2023-02-02T00:52:21;78.10;;;39.05;;
76155;SDS011;64906;51.290;7.348;2023-02-02T02:13:10;65.35;;;32.92;;
76155;SDS011;64906;51.290;7.348;2023-02-02T02:53:37;66.38;;;27.75;;
76155;SDS011;64906;51.290;7.348;2023-02-02T03:31:42;51.95;;;23.42;;
76155;SDS011;64906;51.290;7.348;2023-02-02T03:54:07;43.05;;;20.65;;
76155;SDS011;64906;51.290;7.348;2023-02-02T04:33:46;49.72;;;20.77;;
76155;SDS011;64906;51.290;7.348;2023-02-02T05:02:56;42.97;;;19.88;;
76155;SDS011;64906;51.290;7.348;2023-02-02T05:05:22;45.72;;;20.52;;
76155;SDS011;64906;51.290;7.348;2023-02-02T05:14:14;41.72;;;19.45;;
76155;SDS011;64906;51.290;7.348;2023-02-02T05:22:29;48.42;;;20.48;;
76155;SDS011;64906;51.290;7.348;2023-02-02T05:37:32;42.35;;;19.13;;
76155;SDS011;64906;51.290;7.348;2023-02-02T05:46:06;43.15;;;18.73;;
76155;SDS011;64906;51.290;7.348;2023-02-02T06:01:40;38.90;;;17.30;;
76155;SDS011;64906;51.290;7.348;2023-02-02T06:10:31;38.15;;;17.40;;
76155;SDS011;64906;51.290;7.348;2023-02-02T06:23:02;47.20;;;18.00;;
76155;SDS011;64906;51.290;7.348;2023-02-02T06:49:16;36.58;;;16.15;;
76155;SDS011;64906;51.290;7.348;2023-02-02T06:51:57;39.88;;;16.73;;
76155;SDS011;64906;51.290;7.348;2023-02-02T07:11:12;42.83;;;16.70;;
76155;SDS011;64906;51.290;7.348;2023-02-02T07:17:00;33.28;;;15.02;;
76155;SDS011;64906;51.290;7.348;2023-02-02T07:19:26;32.05;;;14.57;;
76155;SDS011;64906;51.290;7.348;2023-02-02T07:35:00;36.17;;;18.20;;
76155;SDS011;64906;51.290;7.348;2023-02-02T07:56:47;58.28;;;28.17;;
76155;SDS011;64906;51.290;7.348;2023-02-02T08:02:41;49.83;;;25.27;;
76155;SDS011;64906;51.290;7.348;2023-02-02T08:11:53;45.28;;;22.58;;
76155;SDS011;64906;51.290;7.348;2023-02-02T08:18:09;49.42;;;23.05;;
76155;SDS011;64906;51.290;7.348;2023-02-02T08:20:35;50.05;;;25.90;;
76155;SDS011;64906;51.290;7.348;2023-02-02T08:23:16;51.42;;;26.55;;
76155;SDS011;64906;51.290;7.348;2023-02-02T08:25:48;50.00;;;25.48;;
76155;SDS011;64906;51.290;7.348;2023-02-02T09:28:57;214.48;;;118.55;;
76155;SDS011;64906;51.290;7.348;2023-02-02T09:36:19;298.63;;;177.50;;
76155;SDS011;64906;51.290;7.348;2023-02-02T10:04:34;285.95;;;164.00;;
76155;SDS011;64906;51.290;7.348;2023-02-02T10:07:12;283.65;;;160.65;;
76155;SDS011;64906;51.290;7.348;2023-02-02T10:17:38;277.15;;;154.85;;
76155;SDS011;64906;51.290;7.348;2023-02-02T10:20:12;276.98;;;159.65;;
76155;SDS011;64906;51.290;7.348;2023-02-02T10:22:42;278.17;;;159.18;;
76155;SDS011;64906;51.290;7.348;2023-02-02T10:25:11;280.25;;;163.00;;
76155;SDS011;64906;51.290;7.348;2023-02-02T10:27:39;281.17;;;163.13;;
76155;SDS011;64906;51.290;7.348;2023-02-02T10:30:12;289.33;;;167.32;;
76155;SDS011;64906;51.290;7.348;2023-02-02T10:38:32;294.17;;;168.38;;
76155;SDS011;64906;51.290;7.348;2023-02-02T10:41:28;298.38;;;171.25;;
76155;SDS011;64906;51.290;7.348;2023-02-02T10:46:53;303.52;;;192.13;;
76155;SDS011;64906;51.290;7.348;2023-02-02T10:54:39;301.55;;;175.15;;
76155;SDS011;64906;51.290;7.348;2023-02-02T10:57:07;297.13;;;180.90;;
76155;SDS011;64906;51.290;7.348;2023-02-02T11:00:23;305.98;;;178.27;;
76155;SDS011;64906;51.290;7.348;2023-02-02T11:02:34;307.55;;;177.27;;
76155;SDS011;64906;51.290;7.348;2023-02-02T11:05:00;306.67;;;180.50;;
76155;SDS011;64906;51.290;7.348;2023-02-02T11:07:45;308.60;;;195.00;;
76155;SDS011;64906;51.290;7.348;2023-02-02T11:10:11;311.77;;;185.88;;
76155;SDS011;64906;51.290;7.348;2023-02-02T11:12:38;310.80;;;184.05;;
76155;SDS011;64906;51.290;7.348;2023-02-02T11:15:28;315.92;;;182.93;;
76155;SDS011;64906;51.290;7.348;2023-02-02T11:17:55;303.38;;;179.00;;
76155;SDS011;64906;51.290;7.348;2023-02-02T11:20:36;302.42;;;193.25;;
76155;SDS011;64906;51.290;7.348;2023-02-02T11:23:03;294.95;;;173.13;;
76155;SDS011;64906;51.290;7.348;2023-02-02T11:25:38;295.83;;;178.85;;
76155;SDS011;64906;51.290;7.348;2023-02-02T11:28:20;289.25;;;166.77;;
76155;SDS011;64906;51.290;7.348;2023-02-02T11:30:49;293.35;;;171.27;;
76155;SDS011;64906;51.290;7.348;2023-02-02T11:33:27;290.67;;;175.38;;
76155;SDS011;64906;51.290;7.348;2023-02-02T11:36:05;303.90;;;181.38;;
76155;SDS011;64906;51.290;7.348;2023-02-02T11:41:57;315.42;;;190.07;;
76155;SDS011;64906;51.290;7.348;2023-02-02T11:44:51;315.05;;;191.45;;
76155;SDS011;64906;51.290;7.348;2023-02-02T11:47:20;311.75;;;182.88;;
76155;SDS011;64906;51.290;7.348;2023-02-02T11:49:50;304.33;;;181.43;;
76155;SDS011;64906;51.290;7.348;2023-02-02T11:52:23;293.48;;;177.18;;
76155;SDS011;64906;51.290;7.348;2023-02-02T11:54:52;303.42;;;182.93;;
76155;SDS011;64906;51.290;7.348;2023-02-02T11:57:22;289.50;;;172.43;;
76155;SDS011;64906;51.290;7.348;2023-02-02T11:59:50;295.02;;;170.45;;
76155;SDS011;64906;51.290;7.348;2023-02-02T12:02:44;294.05;;;171.35;;
76155;SDS011;64906;51.290;7.348;2023-02-02T12:05:19;277.30;;;164.80;;
76155;SDS011;64906;51.290;7.348;2023-02-02T12:08:00;272.83;;;161.65;;
76155;SDS011;64906;51.290;7.348;2023-02-02T12:13:32;266.30;;;151.60;;
76155;SDS011;64906;51.290;7.348;2023-02-02T12:16:44;273.77;;;164.02;;
76155;SDS011;64906;51.290;7.348;2023-02-02T12:25:45;241.13;;;141.27;;
76155;SDS011;64906;51.290;7.348;2023-02-02T12:30:57;239.95;;;137.55;;
76155;SDS011;64906;51.290;7.348;2023-02-02T12:33:50;240.63;;;135.15;;
76155;SDS011;64906;51.290;7.348;2023-02-02T12:39:08;231.52;;;135.38;;
76155;SDS011;64906;51.290;7.348;2023-02-02T12:41:54;222.60;;;128.40;;
76155;SDS011;64906;51.290;7.348;2023-02-02T12:44:43;206.50;;;119.13;;
76155;SDS011;64906;51.290;7.348;2023-02-02T12:47:27;213.82;;;124.20;;
76155;SDS011;64906;51.290;7.348;2023-02-02T12:50:29;214.95;;;121.80;;
76155;SDS011;64906;51.290;7.348;2023-02-02T12:56:36;213.70;;;121.40;;
76155;SDS011;64906;51.290;7.348;2023-02-02T12:58:56;214.57;;;119.30;;
76155;SDS011;64906;51.290;7.348;2023-02-02T13:07:45;285.50;;;141.68;;
76155;SDS011;64906;51.290;7.348;2023-02-02T13:12:57;334.95;;;165.23;;
76155;SDS011;64906;51.290;7.348;2023-02-02T13:15:30;355.13;;;162.95;;
76155;SDS011;64906;51.290;7.348;2023-02-02T13:18:02;365.90;;;173.45;;
76155;SDS011;64906;51.290;7.348;2023-02-02T13:23:35;375.27;;;180.30;;
76155;SDS011;64906;51.290;7.348;2023-02-02T13:26:05;381.67;;;177.48;;
76155;SDS011;64906;51.290;7.348;2023-02-02T13:28:42;356.25;;;168.93;;
76155;SDS011;64906;51.290;7.348;2023-02-02T13:31:10;360.73;;;169.35;;
76155;SDS011;64906;51.290;7.348;2023-02-02T13:34:03;339.23;;;163.10;;
76155;SDS011;64906;51.290;7.348;2023-02-02T13:36:40;353.98;;;163.82;;
76155;SDS011;64906;51.290;7.348;2023-02-02T13:39:13;347.25;;;160.30;;
76155;SDS011;64906;51.290;7.348;2023-02-02T13:41:46;364.63;;;160.98;;
76155;SDS011;64906;51.290;7.348;2023-02-02T13:44:19;349.38;;;164.80;;
76155;SDS011;64906;51.290;7.348;2023-02-02T13:46:51;370.30;;;166.82;;
76155;SDS011;64906;51.290;7.348;2023-02-02T13:49:37;345.42;;;161.85;;
76155;SDS011;64906;51.290;7.348;2023-02-02T13:52:30;362.92;;;162.00;;
76155;SDS011;64906;51.290;7.348;2023-02-02T14:00:43;348.02;;;163.70;;
76155;SDS011;64906;51.290;7.348;2023-02-02T14:03:33;345.13;;;158.05;;
76155;SDS011;64906;51.290;7.348;2023-02-02T14:06:18;335.98;;;158.80;;
76155;SDS011;64906;51.290;7.348;2023-02-02T14:11:31;318.95;;;152.38;;
76155;SDS011;64906;51.290;7.348;2023-02-02T14:14:12;328.60;;;159.40;;
76155;SDS011;64906;51.290;7.348;2023-02-02T14:16:57;335.08;;;160.43;;
76155;SDS011;64906;51.290;7.348;2023-02-02T14:21:57;311.08;;;151.68;;
76155;SDS011;64906;51.290;7.348;2023-02-02T14:24:40;307.30;;;145.25;;
76155;SDS011;64906;51.290;7.348;2023-02-02T14:34:38;300.70;;;141.05;;
76155;SDS011;64906;51.290;7.348;2023-02-02T14:45:48;278.90;;;134.07;;
76155;SDS011;64906;51.290;7.348;2023-02-02T14:48:36;277.00;;;130.63;;
76155;SDS011;64906;51.290;7.348;2023-02-02T14:51:15;270.52;;;130.10;;
76155;SDS011;64906;51.290;7.348;2023-02-02T14:53:47;265.52;;;124.38;;
76155;SDS011;64906;51.290;7.348;2023-02-02T14:56:17;269.58;;;127.93;;
76155;SDS011;64906;51.290;7.348;2023-02-02T14:58:53;266.75;;;127.55;;
76155;SDS011;64906;51.290;7.348;2023-02-02T15:01:25;255.55;;;123.35;;
76155;SDS011;64906;51.290;7.348;2023-02-02T15:06:46;248.82;;;118.57;;
76155;SDS011;64906;51.290;7.348;2023-02-02T15:23:01;159.27;;;82.60;;
76155;SDS011;64906;51.290;7.348;2023-02-02T15:33:36;128.07;;;62.42;;
76155;SDS011;64906;51.290;7.348;2023-02-02T15:43:48;141.40;;;68.45;;
76155;SDS011;64906;51.290;7.348;2023-02-02T15:46:17;116.85;;;54.92;;
76155;SDS011;64906;51.290;7.348;2023-02-02T15:51:53;107.78;;;49.50;;
76155;SDS011;64906;51.290;7.348;2023-02-02T15:54:24;109.38;;;50.20;;
76155;SDS011;64906;51.290;7.348;2023-02-02T15:56:53;113.05;;;50.33;;
76155;SDS011;64906;51.290;7.348;2023-02-02T15:59:25;105.93;;;46.50;;
76155;SDS011;64906;51.290;7.348;2023-02-02T16:02:18;98.00;;;45.05;;
76155;SDS011;64906;51.290;7.348;2023-02-02T16:05:00;90.22;;;38.50;;
76155;SDS011;64906;51.290;7.348;2023-02-02T16:07:29;82.60;;;38.85;;
76155;SDS011;64906;51.290;7.348;2023-02-02T16:10:05;91.53;;;39.90;;
76155;SDS011;64906;51.290;7.348;2023-02-02T16:12:32;106.57;;;42.22;;
76155;SDS011;64906;51.290;7.348;2023-02-02T16:14:59;103.35;;;41.97;;
76155;SDS011;64906;51.290;7.348;2023-02-02T16:17:28;102.65;;;43.60;;
76155;SDS011;64906;51.290;7.348;2023-02-02T16:20:00;100.40;;;43.45;;
76155;SDS011;64906;51.290;7.348;2023-02-02T16:22:32;99.65;;;45.25;;
76155;SDS011;64906;51.290;7.348;2023-02-02T16:25:02;90.85;;;42.97;;
76155;SDS011;64906;51.290;7.348;2023-02-02T16:27:32;91.65;;;45.67;;
76155;SDS011;64906;51.290;7.348;2023-02-02T16:30:00;103.32;;;46.85;;
76155;SDS011;64906;51.290;7.348;2023-02-02T16:32:32;95.80;;;45.35;;
76155;SDS011;64906;51.290;7.348;2023-02-02T16:35:02;101.03;;;47.28;;
76155;SDS011;64906;51.290;7.348;2023-02-02T16:37:34;105.25;;;48.22;;
76155;SDS011;64906;51.290;7.348;2023-02-02T16:45:45;107.72;;;48.90;;
76155;SDS011;64906;51.290;7.348;2023-02-02T16:50:47;104.20;;;49.10;;
76155;SDS011;64906;51.290;7.348;2023-02-02T16:54:01;97.25;;;49.65;;
76155;SDS011;64906;51.290;7.348;2023-02-02T16:56:50;108.68;;;50.40;;
76155;SDS011;64906;51.290;7.348;2023-02-02T16:59:28;101.97;;;49.35;;
76155;SDS011;64906;51.290;7.348;2023-02-02T17:02:00;111.45;;;50.15;;
76155;SDS011;64906;51.290;7.348;2023-02-02T17:04:51;112.93;;;51.45;;
76155;SDS011;64906;51.290;7.348;2023-02-02T17:07:23;99.20;;;49.75;;
76155;SDS011;64906;51.290;7.348;2023-02-02T17:10:09;97.32;;;49.45;;
76155;SDS011;64906;51.290;7.348;2023-02-02T17:12:36;109.97;;;55.28;;
76155;SDS011;64906;51.290;7.348;2023-02-02T17:17:44;102.82;;;51.90;;
76155;SDS011;64906;51.290;7.348;2023-02-02T17:25:47;99.63;;;48.22;;
76155;SDS011;64906;51.290;7.348;2023-02-02T17:28:23;104.50;;;49.35;;
76155;SDS011;64906;51.290;7.348;2023-02-02T17:31:12;99.10;;;49.72;;
76155;SDS011;64906;51.290;7.348;2023-02-02T17:33:39;104.18;;;49.33;;
76155;SDS011;64906;51.290;7.348;2023-02-02T17:36:08;104.47;;;50.00;;
76155;SDS011;64906;51.290;7.348;2023-02-02T17:38:37;93.75;;;50.33;;
76155;SDS011;64906;51.290;7.348;2023-02-02T17:41:04;107.10;;;52.63;;
76155;SDS011;64906;51.290;7.348;2023-02-02T17:43:31;99.10;;;47.97;;
76155;SDS011;64906;51.290;7.348;2023-02-02T17:45:59;103.80;;;52.55;;
76155;SDS011;64906;51.290;7.348;2023-02-02T17:48:28;95.30;;;48.30;;
76155;SDS011;64906;51.290;7.348;2023-02-02T17:50:54;98.57;;;47.90;;
76155;SDS011;64906;51.290;7.348;2023-02-02T17:53:20;98.55;;;48.63;;
76155;SDS011;64906;51.290;7.348;2023-02-02T17:55:47;99.07;;;47.17;;
76155;SDS011;64906;51.290;7.348;2023-02-02T17:58:14;98.13;;;47.38;;
76155;SDS011;64906;51.290;7.348;2023-02-02T18:00:42;98.70;;;50.72;;
76155;SDS011;64906;51.290;7.348;2023-02-02T18:05:44;96.88;;;47.78;;
76155;SDS011;64906;51.290;7.348;2023-02-02T18:08:10;97.90;;;47.10;;
76155;SDS011;64906;51.290;7.348;2023-02-02T18:10:37;94.68;;;49.78;;
76155;SDS011;64906;51.290;7.348;2023-02-02T18:13:06;100.20;;;48.30;;
76155;SDS011;64906;51.290;7.348;2023-02-02T18:15:32;101.43;;;54.75;;
76155;SDS011;64906;51.290;7.348;2023-02-02T18:17:59;94.30;;;48.78;;
76155;SDS011;64906;51.290;7.348;2023-02-02T18:20:26;96.78;;;49.65;;
76155;SDS011;64906;51.290;7.348;2023-02-02T18:22:55;99.57;;;50.15;;
76155;SDS011;64906;51.290;7.348;2023-02-02T18:25:24;105.63;;;48.85;;
76155;SDS011;64906;51.290;7.348;2023-02-02T18:27:52;95.40;;;49.35;;
76155;SDS011;64906;51.290;7.348;2023-02-02T18:30:18;100.80;;;49.92;;
76155;SDS011;64906;51.290;7.348;2023-02-02T18:32:44;92.93;;;48.38;;
76155;SDS011;64906;51.290;7.348;2023-02-02T18:35:10;95.75;;;49.45;;
76155;SDS011;64906;51.290;7.348;2023-02-02T18:37:37;102.72;;;51.08;;
76155;SDS011;64906;51.290;7.348;2023-02-02T18:40:04;101.65;;;50.50;;
76155;SDS011;64906;51.290;7.348;2023-02-02T18:42:32;98.68;;;51.75;;
76155;SDS011;64906;51.290;7.348;2023-02-02T18:44:58;95.78;;;49.70;;
76155;SDS011;64906;51.290;7.348;2023-02-02T18:47:26;96.38;;;48.60;;
76155;SDS011;64906;51.290;7.348;2023-02-02T18:53:02;101.85;;;51.92;;
76155;SDS011;64906;51.290;7.348;2023-02-02T18:55:28;104.05;;;51.40;;
76155;SDS011;64906;51.290;7.348;2023-02-02T18:57:54;99.85;;;50.13;;
76155;SDS011;64906;51.290;7.348;2023-02-02T19:00:20;103.47;;;51.30;;
76155;SDS011;64906;51.290;7.348;2023-02-02T19:02:46;95.65;;;54.80;;
76155;SDS011;64906;51.290;7.348;2023-02-02T19:05:13;100.82;;;51.45;;
76155;SDS011;64906;51.290;7.348;2023-02-02T19:07:57;99.72;;;51.20;;
76155;SDS011;64906;51.290;7.348;2023-02-02T19:10:25;99.22;;;51.00;;
76155;SDS011;64906;51.290;7.348;2023-02-02T19:15:36;93.80;;;50.53;;
76155;SDS011;64906;51.290;7.348;2023-02-02T19:18:23;103.57;;;54.53;;
76155;SDS011;64906;51.290;7.348;2023-02-02T19:20:50;93.50;;;50.63;;
76155;SDS011;64906;51.290;7.348;2023-02-02T19:23:18;94.03;;;49.00;;
76155;SDS011;64906;51.290;7.348;2023-02-02T19:25:52;103.18;;;54.40;;
76155;SDS011;64906;51.290;7.348;2023-02-02T19:28:23;94.53;;;51.80;;
76155;SDS011;64906;51.290;7.348;2023-02-02T19:31:00;97.63;;;51.05;;
76155;SDS011;64906;51.290;7.348;2023-02-02T19:33:48;90.75;;;51.15;;
76155;SDS011;64906;51.290;7.348;2023-02-02T19:36:19;87.95;;;49.67;;
76155;SDS011;64906;51.290;7.348;2023-02-02T19:38:48;102.72;;;53.50;;
76155;SDS011;64906;51.290;7.348;2023-02-02T19:41:21;99.97;;;51.30;;
76155;SDS011;64906;51.290;7.348;2023-02-02T19:44:00;98.35;;;52.53;;
76155;SDS011;64906;51.290;7.348;2023-02-02T19:46:38;104.80;;;51.63;;
76155;SDS011;64906;51.290;7.348;2023-02-02T19:49:11;100.85;;;52.50;;
76155;SDS011;64906;51.290;7.348;2023-02-02T19:54:40;103.75;;;54.05;;
76155;SDS011;64906;51.290;7.348;2023-02-02T19:57:14;96.90;;;51.60;;
76155;SDS011;64906;51.290;7.348;2023-02-02T19:59:41;94.07;;;50.45;;
76155;SDS011;64906;51.290;7.348;2023-02-02T20:02:18;88.28;;;47.83;;
76155;SDS011;64906;51.290;7.348;2023-02-02T20:07:37;92.70;;;48.67;;
76155;SDS011;64906;51.290;7.348;2023-02-02T20:10:17;96.93;;;51.90;;
76155;SDS011;64906;51.290;7.348;2023-02-02T20:12:48;90.70;;;49.42;;
76155;SDS011;64906;51.290;7.348;2023-02-02T20:15:34;101.78;;;48.90;;
76155;SDS011;64906;51.290;7.348;2023-02-02T20:18:02;97.40;;;50.70;;
76155;SDS011;64906;51.290;7.348;2023-02-02T20:23:14;89.70;;;50.42;;
76155;SDS011;64906;51.290;7.348;2023-02-02T20:25:43;94.22;;;48.78;;
76155;SDS011;64906;51.290;7.348;2023-02-02T20:28:52;92.88;;;51.40;;
76155;SDS011;64906;51.290;7.348;2023-02-02T20:31:13;94.75;;;50.25;;
76155;SDS011;64906;51.290;7.348;2023-02-02T20:33:44;87.82;;;49.85;;
76155;SDS011;64906;51.290;7.348;2023-02-02T20:42:14;86.80;;;48.45;;
76155;SDS011;64906;51.290;7.348;2023-02-02T20:44:40;95.63;;;50.20;;
76155;SDS011;64906;51.290;7.348;2023-02-02T20:47:07;100.70;;;51.88;;
76155;SDS011;64906;51.290;7.348;2023-02-02T20:49:34;91.65;;;52.22;;
76155;SDS011;64906;51.290;7.348;2023-02-02T20:52:03;91.00;;;47.75;;
76155;SDS011;64906;51.290;7.348;2023-02-02T20:54:32;88.03;;;49.47;;
76155;SDS011;64906;51.290;7.348;2023-02-02T20:56:58;96.80;;;52.80;;
76155;SDS011;64906;51.290;7.348;2023-02-02T20:59:26;85.70;;;48.40;;
76155;SDS011;64906;51.290;7.348;2023-02-02T21:01:52;90.47;;;47.90;;
76155;SDS011;64906;51.290;7.348;2023-02-02T21:04:18;92.38;;;48.55;;
76155;SDS011;64906;51.290;7.348;2023-02-02T21:06:45;93.47;;;48.42;;
76155;SDS011;64906;51.290;7.348;2023-02-02T21:09:13;88.82;;;49.28;;
76155;SDS011;64906;51.290;7.348;2023-02-02T21:11:39;89.55;;;48.40;;
76155;SDS011;64906;51.290;7.348;2023-02-02T21:14:06;90.65;;;49.47;;
76155;SDS011;64906;51.290;7.348;2023-02-02T21:16:33;83.22;;;48.65;;
76155;SDS011;64906;51.290;7.348;2023-02-02T21:18:59;89.38;;;47.67;;
76155;SDS011;64906;51.290;7.348;2023-02-02T21:21:25;85.85;;;48.28;;
76155;SDS011;64906;51.290;7.348;2023-02-02T21:23:52;92.00;;;47.88;;
76155;SDS011;64906;51.290;7.348;2023-02-02T21:26:19;94.90;;;49.03;;
76155;SDS011;64906;51.290;7.348;2023-02-02T21:28:46;89.32;;;48.83;;
76155;SDS011;64906;51.290;7.348;2023-02-02T21:31:13;90.93;;;48.47;;
76155;SDS011;64906;51.290;7.348;2023-02-02T21:33:41;88.38;;;46.90;;
76155;SDS011;64906;51.290;7.348;2023-02-02T21:44:26;91.15;;;46.20;;
76155;SDS011;64906;51.290;7.348;2023-02-02T21:46:55;84.35;;;46.88;;
76155;SDS011;64906;51.290;7.348;2023-02-02T21:49:23;78.82;;;45.42;;
76155;SDS011;64906;51.290;7.348;2023-02-02T21:51:51;91.53;;;51.08;;
76155;SDS011;64906;51.290;7.348;2023-02-02T21:54:24;78.90;;;47.40;;
76155;SDS011;64906;51.290;7.348;2023-02-02T21:56:52;90.35;;;47.55;;
76155;SDS011;64906;51.290;7.348;2023-02-02T21:59:23;80.78;;;45.67;;
76155;SDS011;64906;51.290;7.348;2023-02-02T22:01:56;87.20;;;48.45;;
76155;SDS011;64906;51.290;7.348;2023-02-02T22:04:22;86.13;;;46.42;;
76155;SDS011;64906;51.290;7.348;2023-02-02T22:06:59;89.13;;;48.00;;
76155;SDS011;64906;51.290;7.348;2023-02-02T22:09:38;86.07;;;48.45;;
76155;SDS011;64906;51.290;7.348;2023-02-02T22:15:00;84.72;;;46.50;;
76155;SDS011;64906;51.290;7.348;2023-02-02T22:17:38;85.40;;;46.67;;
76155;SDS011;64906;51.290;7.348;2023-02-02T22:20:39;84.07;;;45.65;;
76155;SDS011;64906;51.290;7.348;2023-02-02T22:23:02;81.00;;;46.28;;
76155;SDS011;64906;51.290;7.348;2023-02-02T22:25:32;83.20;;;45.00;;
76155;SDS011;64906;51.290;7.348;2023-02-02T22:28:10;82.45;;;46.38;;
76155;SDS011;64906;51.290;7.348;2023-02-02T22:30:43;79.55;;;44.35;;
76155;SDS011;64906;51.290;7.348;2023-02-02T22:33:10;81.40;;;45.88;;
76155;SDS011;64906;51.290;7.348;2023-02-02T22:35:37;78.22;;;45.05;;
76155;SDS011;64906;51.290;7.348;2023-02-02T22:38:03;82.65;;;46.13;;
76155;SDS011;64906;51.290;7.348;2023-02-02T22:40:30;78.43;;;44.88;;
76155;SDS011;64906;51.290;7.348;2023-02-02T22:42:58;81.53;;;43.40;;
76155;SDS011;64906;51.290;7.348;2023-02-02T22:45:25;82.03;;;45.25;;
76155;SDS011;64906;51.290;7.348;2023-02-02T22:47:51;77.80;;;45.05;;
76155;SDS011;64906;51.290;7.348;2023-02-02T22:50:19;76.70;;;44.25;;
76155;SDS011;64906;51.290;7.348;2023-02-02T22:52:47;73.90;;;42.97;;
76155;SDS011;64906;51.290;7.348;2023-02-02T22:55:13;78.82;;;44.42;;
76155;SDS011;64906;51.290;7.348;2023-02-02T22:57:40;80.50;;;44.47;;
76155;SDS011;64906;51.290;7.348;2023-02-02T23:00:07;77.70;;;43.20;;
76155;SDS011;64906;51.290;7.348;2023-02-02T23:02:39;77.50;;;45.30;;
76155;SDS011;64906;51.290;7.348;2023-02-02T23:05:07;73.25;;;43.40;;
76155;SDS011;64906;51.290;7.348;2023-02-02T23:07:35;73.45;;;43.92;;
76155;SDS011;64906;51.290;7.348;2023-02-02T23:10:01;80.85;;;45.03;;
76155;SDS011;64906;51.290;7.348;2023-02-02T23:12:27;77.90;;;44.25;;
76155;SDS011;64906;51.290;7.348;2023-02-02T23:14:54;79.32;;;43.92;;
76155;SDS011;64906;51.290;7.348;2023-02-02T23:17:20;72.60;;;42.83;;
76155;SDS011;64906;51.290;7.348;2023-02-02T23:19:46;75.45;;;43.70;;
76155;SDS011;64906;51.290;7.348;2023-02-02T23:22:12;76.60;;;47.50;;
76155;SDS011;64906;51.290;7.348;2023-02-02T23:24:38;77.40;;;44.30;;
76155;SDS011;64906;51.290;7.348;2023-02-02T23:27:04;77.38;;;43.83;;
76155;SDS011;64906;51.290;7.348;2023-02-02T23:29:30;71.43;;;41.50;;
76155;SDS011;64906;51.290;7.348;2023-02-02T23:31:56;77.25;;;42.03;;
76155;SDS011;64906;51.290;7.348;2023-02-02T23:34:22;74.75;;;42.45;;
76155;SDS011;64906;51.290;7.348;2023-02-02T23:36:48;73.43;;;41.92;;
76155;SDS011;64906;51.290;7.348;2023-02-02T23:39:14;73.65;;;41.80;;
76155;SDS011;64906;51.290;7.348;2023-02-02T23:41:40;76.00;;;43.30;;
76155;SDS011;64906;51.290;7.348;2023-02-02T23:44:05;71.70;;;42.30;;
76155;SDS011;64906;51.290;7.348;2023-02-02T23:46:31;74.72;;;42.28;;
76155;SDS011;64906;51.290;7.348;2023-02-02T23:48:58;70.35;;;42.05;;
76155;SDS011;64906;51.290;7.348;2023-02-02T23:51:24;74.05;;;42.80;;
76155;SDS011;64906;51.290;7.348;2023-02-02T23:53:50;74.60;;;41.75;;
76155;SDS011;64906;51.290;7.348;2023-02-02T23:56:20;70.35;;;41.25;;
76155;SDS011;64906;51.290;7.348;2023-02-02T23:58:46;65.75;;;39.90;;
